sensor_id;sensor_type;location;lat;lon;timestamp;P1;durP1;ratioP1;P2;durP2;ratioP2
18296;SDS011;18066;52.106;5.534;2023-05-07T00:02:19;4.65;;;4.00;;
18296;SDS011;18066;52.106;5.534;2023-05-07T00:04:45;4.90;;;3.97;;
18296;SDS011;18066;52.106;5.534;2023-05-07T00:07:12;5.75;;;4.18;;
18296;SDS011;18066;52.106;5.534;2023-05-07T00:09:39;6.50;;;4.90;;
18296;SDS011;18066;52.106;5.534;2023-05-07T00:12:07;5.75;;;4.72;;
18296;SDS011;18066;52.106;5.534;2023-05-07T00:14:34;6.25;;;4.20;;
18296;SDS011;18066;52.106;5.534;2023-05-07T00:17:01;5.97;;;4.43;;
18296;SDS011;18066;52.106;5.534;2023-05-07T00:19:27;5.50;;;4.25;;
18296;SDS011;18066;52.106;5.534;2023-05-07T00:21:54;7.65;;;4.65;;
18296;SDS011;18066;52.106;5.534;2023-05-07T00:24:22;5.38;;;4.35;;
18296;SDS011;18066;52.106;5.534;2023-05-07T00:26:48;6.90;;;4.20;;
18296;SDS011;18066;52.106;5.534;2023-05-07T00:29:17;7.45;;;4.93;;
18296;SDS011;18066;52.106;5.534;2023-05-07T00:31:44;9.85;;;4.22;;
18296;SDS011;18066;52.106;5.534;2023-05-07T00:34:10;4.57;;;4.07;;
18296;SDS011;18066;52.106;5.534;2023-05-07T00:36:37;5.22;;;3.75;;
18296;SDS011;18066;52.106;5.534;2023-05-07T00:39:04;5.25;;;4.53;;
18296;SDS011;18066;52.106;5.534;2023-05-07T00:41:31;6.68;;;4.05;;
18296;SDS011;18066;52.106;5.534;2023-05-07T00:43:58;5.90;;;4.43;;
18296;SDS011;18066;52.106;5.534;2023-05-07T00:46:27;7.13;;;4.20;;
18296;SDS011;18066;52.106;5.534;2023-05-07T00:48:54;9.27;;;4.95;;
18296;SDS011;18066;52.106;5.534;2023-05-07T00:51:21;6.13;;;4.97;;
18296;SDS011;18066;52.106;5.534;2023-05-07T00:53:48;7.18;;;4.18;;
18296;SDS011;18066;52.106;5.534;2023-05-07T00:56:15;6.13;;;4.32;;
18296;SDS011;18066;52.106;5.534;2023-05-07T00:58:42;6.65;;;4.70;;
18296;SDS011;18066;52.106;5.534;2023-05-07T01:01:09;6.28;;;4.85;;
18296;SDS011;18066;52.106;5.534;2023-05-07T01:03:37;5.82;;;4.32;;
18296;SDS011;18066;52.106;5.534;2023-05-07T01:06:04;5.57;;;4.60;;
18296;SDS011;18066;52.106;5.534;2023-05-07T01:08:33;9.90;;;4.28;;
18296;SDS011;18066;52.106;5.534;2023-05-07T01:11:01;7.13;;;3.83;;
18296;SDS011;18066;52.106;5.534;2023-05-07T01:13:28;7.93;;;4.45;;
18296;SDS011;18066;52.106;5.534;2023-05-07T01:15:56;5.50;;;4.88;;
18296;SDS011;18066;52.106;5.534;2023-05-07T01:18:22;6.72;;;5.18;;
18296;SDS011;18066;52.106;5.534;2023-05-07T01:20:52;5.90;;;4.88;;
18296;SDS011;18066;52.106;5.534;2023-05-07T01:23:20;9.95;;;4.65;;
18296;SDS011;18066;52.106;5.534;2023-05-07T01:25:51;7.53;;;5.05;;
18296;SDS011;18066;52.106;5.534;2023-05-07T01:28:18;6.13;;;4.75;;
18296;SDS011;18066;52.106;5.534;2023-05-07T01:30:46;6.22;;;4.68;;
18296;SDS011;18066;52.106;5.534;2023-05-07T01:33:15;5.47;;;4.32;;
18296;SDS011;18066;52.106;5.534;2023-05-07T01:35:48;8.27;;;5.13;;
18296;SDS011;18066;52.106;5.534;2023-05-07T01:38:18;6.72;;;4.30;;
18296;SDS011;18066;52.106;5.534;2023-05-07T01:40:47;4.90;;;4.38;;
18296;SDS011;18066;52.106;5.534;2023-05-07T01:43:14;9.18;;;5.10;;
18296;SDS011;18066;52.106;5.534;2023-05-07T01:45:41;6.50;;;4.70;;
18296;SDS011;18066;52.106;5.534;2023-05-07T01:48:09;6.97;;;5.07;;
18296;SDS011;18066;52.106;5.534;2023-05-07T01:50:37;6.10;;;4.63;;
18296;SDS011;18066;52.106;5.534;2023-05-07T01:53:04;6.43;;;4.43;;
18296;SDS011;18066;52.106;5.534;2023-05-07T01:55:33;6.07;;;4.95;;
18296;SDS011;18066;52.106;5.534;2023-05-07T01:58:01;7.05;;;5.05;;
18296;SDS011;18066;52.106;5.534;2023-05-07T02:00:28;7.95;;;5.00;;
18296;SDS011;18066;52.106;5.534;2023-05-07T02:02:55;5.18;;;4.63;;
18296;SDS011;18066;52.106;5.534;2023-05-07T02:05:22;6.93;;;5.72;;
18296;SDS011;18066;52.106;5.534;2023-05-07T02:07:49;9.23;;;5.55;;
18296;SDS011;18066;52.106;5.534;2023-05-07T02:10:16;6.05;;;4.80;;
18296;SDS011;18066;52.106;5.534;2023-05-07T02:12:44;7.05;;;4.95;;
18296;SDS011;18066;52.106;5.534;2023-05-07T02:15:11;6.65;;;5.68;;
18296;SDS011;18066;52.106;5.534;2023-05-07T02:17:39;5.43;;;4.78;;
18296;SDS011;18066;52.106;5.534;2023-05-07T02:20:23;6.95;;;5.07;;
18296;SDS011;18066;52.106;5.534;2023-05-07T02:22:50;6.50;;;4.72;;
18296;SDS011;18066;52.106;5.534;2023-05-07T02:25:17;8.30;;;5.22;;
18296;SDS011;18066;52.106;5.534;2023-05-07T02:27:45;6.07;;;4.75;;
18296;SDS011;18066;52.106;5.534;2023-05-07T02:30:12;6.28;;;5.50;;
18296;SDS011;18066;52.106;5.534;2023-05-07T02:32:39;5.78;;;5.20;;
18296;SDS011;18066;52.106;5.534;2023-05-07T02:35:06;7.63;;;5.70;;
18296;SDS011;18066;52.106;5.534;2023-05-07T02:37:34;7.05;;;5.22;;
18296;SDS011;18066;52.106;5.534;2023-05-07T02:40:00;9.43;;;5.20;;
18296;SDS011;18066;52.106;5.534;2023-05-07T02:42:29;6.93;;;5.72;;
18296;SDS011;18066;52.106;5.534;2023-05-07T02:44:57;9.15;;;6.30;;
18296;SDS011;18066;52.106;5.534;2023-05-07T02:47:24;7.50;;;5.47;;
18296;SDS011;18066;52.106;5.534;2023-05-07T02:49:53;8.90;;;6.10;;
18296;SDS011;18066;52.106;5.534;2023-05-07T02:52:20;7.78;;;5.85;;
18296;SDS011;18066;52.106;5.534;2023-05-07T02:54:47;11.15;;;6.88;;
18296;SDS011;18066;52.106;5.534;2023-05-07T02:57:14;7.50;;;6.15;;
18296;SDS011;18066;52.106;5.534;2023-05-07T02:59:41;8.82;;;5.97;;
18296;SDS011;18066;52.106;5.534;2023-05-07T03:02:09;6.47;;;5.80;;
18296;SDS011;18066;52.106;5.534;2023-05-07T03:04:36;7.72;;;5.13;;
18296;SDS011;18066;52.106;5.534;2023-05-07T03:07:02;8.05;;;5.85;;
18296;SDS011;18066;52.106;5.534;2023-05-07T03:09:29;6.63;;;5.82;;
18296;SDS011;18066;52.106;5.534;2023-05-07T03:11:56;7.68;;;6.25;;
18296;SDS011;18066;52.106;5.534;2023-05-07T03:14:23;8.18;;;7.05;;
18296;SDS011;18066;52.106;5.534;2023-05-07T03:16:50;10.25;;;6.85;;
18296;SDS011;18066;52.106;5.534;2023-05-07T03:19:18;10.57;;;7.72;;
18296;SDS011;18066;52.106;5.534;2023-05-07T03:21:44;8.10;;;6.80;;
18296;SDS011;18066;52.106;5.534;2023-05-07T03:24:11;10.80;;;7.25;;
18296;SDS011;18066;52.106;5.534;2023-05-07T03:26:38;8.98;;;7.22;;
18296;SDS011;18066;52.106;5.534;2023-05-07T03:29:05;11.05;;;8.10;;
18296;SDS011;18066;52.106;5.534;2023-05-07T03:31:31;9.15;;;6.80;;
18296;SDS011;18066;52.106;5.534;2023-05-07T03:33:58;9.93;;;7.00;;
18296;SDS011;18066;52.106;5.534;2023-05-07T03:36:26;12.13;;;7.53;;
18296;SDS011;18066;52.106;5.534;2023-05-07T03:38:53;10.27;;;7.45;;
18296;SDS011;18066;52.106;5.534;2023-05-07T03:41:20;9.60;;;7.65;;
18296;SDS011;18066;52.106;5.534;2023-05-07T03:43:47;9.88;;;7.60;;
18296;SDS011;18066;52.106;5.534;2023-05-07T03:46:13;10.65;;;8.27;;
18296;SDS011;18066;52.106;5.534;2023-05-07T03:48:40;10.85;;;7.90;;
18296;SDS011;18066;52.106;5.534;2023-05-07T03:51:07;7.78;;;6.95;;
18296;SDS011;18066;52.106;5.534;2023-05-07T03:53:35;10.23;;;7.78;;
18296;SDS011;18066;52.106;5.534;2023-05-07T03:56:02;9.13;;;7.57;;
18296;SDS011;18066;52.106;5.534;2023-05-07T03:58:29;11.70;;;8.07;;
18296;SDS011;18066;52.106;5.534;2023-05-07T04:00:56;11.95;;;9.02;;
18296;SDS011;18066;52.106;5.534;2023-05-07T04:03:22;10.73;;;8.65;;
18296;SDS011;18066;52.106;5.534;2023-05-07T04:05:49;9.93;;;8.35;;
18296;SDS011;18066;52.106;5.534;2023-05-07T04:08:16;10.77;;;8.55;;
18296;SDS011;18066;52.106;5.534;2023-05-07T04:10:44;14.68;;;9.60;;
18296;SDS011;18066;52.106;5.534;2023-05-07T04:13:11;18.13;;;10.80;;
18296;SDS011;18066;52.106;5.534;2023-05-07T04:15:37;11.75;;;8.88;;
18296;SDS011;18066;52.106;5.534;2023-05-07T04:18:04;12.13;;;9.30;;
18296;SDS011;18066;52.106;5.534;2023-05-07T04:20:31;11.98;;;9.98;;
18296;SDS011;18066;52.106;5.534;2023-05-07T04:23:01;10.48;;;8.93;;
18296;SDS011;18066;52.106;5.534;2023-05-07T04:25:28;11.88;;;8.55;;
18296;SDS011;18066;52.106;5.534;2023-05-07T04:27:57;12.98;;;9.52;;
18296;SDS011;18066;52.106;5.534;2023-05-07T04:30:23;13.60;;;9.77;;
18296;SDS011;18066;52.106;5.534;2023-05-07T04:32:50;13.60;;;10.80;;
18296;SDS011;18066;52.106;5.534;2023-05-07T04:35:17;14.90;;;11.10;;
18296;SDS011;18066;52.106;5.534;2023-05-07T04:37:44;13.00;;;10.80;;
18296;SDS011;18066;52.106;5.534;2023-05-07T04:40:11;14.57;;;11.73;;
18296;SDS011;18066;52.106;5.534;2023-05-07T04:42:38;14.50;;;11.38;;
18296;SDS011;18066;52.106;5.534;2023-05-07T04:45:07;17.25;;;11.23;;
18296;SDS011;18066;52.106;5.534;2023-05-07T04:47:35;19.02;;;10.73;;
18296;SDS011;18066;52.106;5.534;2023-05-07T04:50:02;15.40;;;12.27;;
18296;SDS011;18066;52.106;5.534;2023-05-07T04:52:29;17.35;;;11.68;;
18296;SDS011;18066;52.106;5.534;2023-05-07T04:54:56;19.95;;;12.73;;
18296;SDS011;18066;52.106;5.534;2023-05-07T04:57:25;23.83;;;13.20;;
18296;SDS011;18066;52.106;5.534;2023-05-07T04:59:52;17.45;;;12.55;;
18296;SDS011;18066;52.106;5.534;2023-05-07T05:02:20;17.50;;;12.85;;
18296;SDS011;18066;52.106;5.534;2023-05-07T05:04:47;17.05;;;11.90;;
18296;SDS011;18066;52.106;5.534;2023-05-07T05:07:13;18.95;;;12.00;;
18296;SDS011;18066;52.106;5.534;2023-05-07T05:09:40;17.08;;;12.77;;
18296;SDS011;18066;52.106;5.534;2023-05-07T05:12:07;16.83;;;13.80;;
18296;SDS011;18066;52.106;5.534;2023-05-07T05:14:34;17.42;;;13.50;;
18296;SDS011;18066;52.106;5.534;2023-05-07T05:17:01;16.80;;;13.40;;
18296;SDS011;18066;52.106;5.534;2023-05-07T05:19:29;17.23;;;14.15;;
18296;SDS011;18066;52.106;5.534;2023-05-07T05:21:55;19.67;;;14.52;;
18296;SDS011;18066;52.106;5.534;2023-05-07T05:24:22;20.50;;;14.07;;
18296;SDS011;18066;52.106;5.534;2023-05-07T05:26:49;17.60;;;13.85;;
18296;SDS011;18066;52.106;5.534;2023-05-07T05:29:16;19.65;;;14.82;;
18296;SDS011;18066;52.106;5.534;2023-05-07T05:31:42;17.45;;;14.25;;
18296;SDS011;18066;52.106;5.534;2023-05-07T05:34:09;16.27;;;14.15;;
18296;SDS011;18066;52.106;5.534;2023-05-07T05:36:37;17.80;;;14.50;;
18296;SDS011;18066;52.106;5.534;2023-05-07T05:39:04;22.75;;;15.43;;
18296;SDS011;18066;52.106;5.534;2023-05-07T05:41:31;18.65;;;14.65;;
18296;SDS011;18066;52.106;5.534;2023-05-07T05:43:57;19.25;;;14.27;;
18296;SDS011;18066;52.106;5.534;2023-05-07T05:46:24;20.83;;;15.68;;
18296;SDS011;18066;52.106;5.534;2023-05-07T05:48:51;21.00;;;16.38;;
18296;SDS011;18066;52.106;5.534;2023-05-07T05:51:18;22.15;;;14.95;;
18296;SDS011;18066;52.106;5.534;2023-05-07T05:53:46;21.45;;;14.80;;
18296;SDS011;18066;52.106;5.534;2023-05-07T05:56:13;17.20;;;15.20;;
18296;SDS011;18066;52.106;5.534;2023-05-07T05:58:40;22.65;;;16.95;;
18296;SDS011;18066;52.106;5.534;2023-05-07T06:01:07;18.83;;;14.60;;
18296;SDS011;18066;52.106;5.534;2023-05-07T06:03:33;17.70;;;13.95;;
18296;SDS011;18066;52.106;5.534;2023-05-07T06:06:00;16.55;;;14.20;;
18296;SDS011;18066;52.106;5.534;2023-05-07T06:08:28;18.00;;;15.18;;
18296;SDS011;18066;52.106;5.534;2023-05-07T06:10:57;23.08;;;15.85;;
18296;SDS011;18066;52.106;5.534;2023-05-07T06:13:24;17.15;;;14.07;;
18296;SDS011;18066;52.106;5.534;2023-05-07T06:15:51;15.40;;;12.82;;
18296;SDS011;18066;52.106;5.534;2023-05-07T06:18:18;15.35;;;12.85;;
18296;SDS011;18066;52.106;5.534;2023-05-07T06:20:45;19.05;;;14.82;;
18296;SDS011;18066;52.106;5.534;2023-05-07T06:23:11;14.38;;;12.73;;
18296;SDS011;18066;52.106;5.534;2023-05-07T06:25:39;17.23;;;12.68;;
18296;SDS011;18066;52.106;5.534;2023-05-07T06:28:07;15.65;;;12.63;;
18296;SDS011;18066;52.106;5.534;2023-05-07T06:30:36;19.13;;;13.32;;
18296;SDS011;18066;52.106;5.534;2023-05-07T06:33:03;12.82;;;11.38;;
18296;SDS011;18066;52.106;5.534;2023-05-07T06:35:29;14.98;;;11.93;;
18296;SDS011;18066;52.106;5.534;2023-05-07T06:37:56;15.65;;;12.10;;
18296;SDS011;18066;52.106;5.534;2023-05-07T06:40:23;14.48;;;12.73;;
18296;SDS011;18066;52.106;5.534;2023-05-07T06:42:49;12.73;;;11.43;;
18296;SDS011;18066;52.106;5.534;2023-05-07T06:45:18;15.77;;;11.40;;
18296;SDS011;18066;52.106;5.534;2023-05-07T06:47:45;12.85;;;11.10;;
18296;SDS011;18066;52.106;5.534;2023-05-07T06:50:12;15.93;;;11.82;;
18296;SDS011;18066;52.106;5.534;2023-05-07T06:52:41;15.20;;;11.77;;
18296;SDS011;18066;52.106;5.534;2023-05-07T06:55:08;16.00;;;11.77;;
18296;SDS011;18066;52.106;5.534;2023-05-07T06:57:36;15.80;;;12.30;;
18296;SDS011;18066;52.106;5.534;2023-05-07T07:00:04;11.98;;;10.50;;
18296;SDS011;18066;52.106;5.534;2023-05-07T07:02:35;13.00;;;11.50;;
18296;SDS011;18066;52.106;5.534;2023-05-07T07:05:02;15.77;;;11.60;;
18296;SDS011;18066;52.106;5.534;2023-05-07T07:07:29;16.70;;;11.85;;
18296;SDS011;18066;52.106;5.534;2023-05-07T07:09:56;14.60;;;12.48;;
18296;SDS011;18066;52.106;5.534;2023-05-07T07:12:23;14.43;;;12.60;;
18296;SDS011;18066;52.106;5.534;2023-05-07T07:14:51;13.68;;;12.05;;
18296;SDS011;18066;52.106;5.534;2023-05-07T07:17:17;14.77;;;12.43;;
18296;SDS011;18066;52.106;5.534;2023-05-07T07:19:45;17.73;;;12.02;;
18296;SDS011;18066;52.106;5.534;2023-05-07T07:22:12;20.13;;;11.55;;
18296;SDS011;18066;52.106;5.534;2023-05-07T07:24:39;13.77;;;11.70;;
18296;SDS011;18066;52.106;5.534;2023-05-07T07:27:05;16.63;;;14.30;;
18296;SDS011;18066;52.106;5.534;2023-05-07T07:29:32;15.07;;;13.02;;
18296;SDS011;18066;52.106;5.534;2023-05-07T07:31:59;15.90;;;13.30;;
18296;SDS011;18066;52.106;5.534;2023-05-07T07:34:26;14.88;;;13.30;;
18296;SDS011;18066;52.106;5.534;2023-05-07T07:36:54;15.65;;;13.68;;
18296;SDS011;18066;52.106;5.534;2023-05-07T07:39:21;16.33;;;12.57;;
18296;SDS011;18066;52.106;5.534;2023-05-07T07:41:47;15.98;;;12.75;;
18296;SDS011;18066;52.106;5.534;2023-05-07T07:44:14;17.00;;;13.75;;
18296;SDS011;18066;52.106;5.534;2023-05-07T07:46:42;13.45;;;12.02;;
18296;SDS011;18066;52.106;5.534;2023-05-07T07:49:08;15.57;;;13.63;;
18296;SDS011;18066;52.106;5.534;2023-05-07T07:51:35;19.20;;;14.48;;
18296;SDS011;18066;52.106;5.534;2023-05-07T07:54:04;18.70;;;15.48;;
18296;SDS011;18066;52.106;5.534;2023-05-07T07:56:31;17.67;;;14.07;;
18296;SDS011;18066;52.106;5.534;2023-05-07T07:58:59;21.45;;;16.13;;
18296;SDS011;18066;52.106;5.534;2023-05-07T08:01:25;16.60;;;14.75;;
18296;SDS011;18066;52.106;5.534;2023-05-07T08:03:52;19.65;;;16.00;;
18296;SDS011;18066;52.106;5.534;2023-05-07T08:06:19;16.20;;;13.55;;
18296;SDS011;18066;52.106;5.534;2023-05-07T08:08:46;16.55;;;14.75;;
18296;SDS011;18066;52.106;5.534;2023-05-07T08:11:14;17.00;;;13.82;;
18296;SDS011;18066;52.106;5.534;2023-05-07T08:13:41;15.48;;;12.85;;
18296;SDS011;18066;52.106;5.534;2023-05-07T08:16:08;17.27;;;14.07;;
18296;SDS011;18066;52.106;5.534;2023-05-07T08:18:35;17.75;;;14.43;;
18296;SDS011;18066;52.106;5.534;2023-05-07T08:21:01;17.27;;;12.93;;
18296;SDS011;18066;52.106;5.534;2023-05-07T08:23:28;17.70;;;14.43;;
18296;SDS011;18066;52.106;5.534;2023-05-07T08:25:55;17.33;;;15.13;;
18296;SDS011;18066;52.106;5.534;2023-05-07T08:28:23;15.07;;;13.05;;
18296;SDS011;18066;52.106;5.534;2023-05-07T08:30:50;16.88;;;14.57;;
18296;SDS011;18066;52.106;5.534;2023-05-07T08:33:17;14.38;;;12.75;;
18296;SDS011;18066;52.106;5.534;2023-05-07T08:35:44;14.00;;;12.50;;
18296;SDS011;18066;52.106;5.534;2023-05-07T08:38:10;15.10;;;13.60;;
18296;SDS011;18066;52.106;5.534;2023-05-07T08:40:38;13.77;;;12.38;;
18296;SDS011;18066;52.106;5.534;2023-05-07T08:43:06;14.50;;;12.90;;
18296;SDS011;18066;52.106;5.534;2023-05-07T08:45:34;13.38;;;11.98;;
18296;SDS011;18066;52.106;5.534;2023-05-07T08:48:05;13.63;;;12.23;;
18296;SDS011;18066;52.106;5.534;2023-05-07T08:50:35;14.55;;;12.52;;
18296;SDS011;18066;52.106;5.534;2023-05-07T08:53:02;15.57;;;12.73;;
18296;SDS011;18066;52.106;5.534;2023-05-07T08:55:30;13.52;;;11.80;;
18296;SDS011;18066;52.106;5.534;2023-05-07T08:57:58;17.65;;;15.02;;
18296;SDS011;18066;52.106;5.534;2023-05-07T09:00:24;18.42;;;16.52;;
18296;SDS011;18066;52.106;5.534;2023-05-07T09:02:53;22.67;;;18.77;;
18296;SDS011;18066;52.106;5.534;2023-05-07T09:05:20;23.15;;;18.58;;
18296;SDS011;18066;52.106;5.534;2023-05-07T09:07:47;19.65;;;16.75;;
18296;SDS011;18066;52.106;5.534;2023-05-07T09:10:14;22.67;;;18.60;;
18296;SDS011;18066;52.106;5.534;2023-05-07T09:12:40;23.10;;;18.95;;
18296;SDS011;18066;52.106;5.534;2023-05-07T09:15:08;21.70;;;19.00;;
18296;SDS011;18066;52.106;5.534;2023-05-07T09:17:35;22.73;;;18.77;;
18296;SDS011;18066;52.106;5.534;2023-05-07T09:20:04;26.10;;;20.23;;
18296;SDS011;18066;52.106;5.534;2023-05-07T09:22:32;25.10;;;20.30;;
18296;SDS011;18066;52.106;5.534;2023-05-07T09:24:59;24.45;;;19.33;;
18296;SDS011;18066;52.106;5.534;2023-05-07T09:27:26;28.48;;;20.55;;
18296;SDS011;18066;52.106;5.534;2023-05-07T09:29:52;22.50;;;19.92;;
18296;SDS011;18066;52.106;5.534;2023-05-07T09:32:19;25.90;;;20.48;;
18296;SDS011;18066;52.106;5.534;2023-05-07T09:34:46;27.55;;;19.48;;
18296;SDS011;18066;52.106;5.534;2023-05-07T09:37:14;22.88;;;18.15;;
18296;SDS011;18066;52.106;5.534;2023-05-07T09:39:43;22.35;;;18.27;;
18296;SDS011;18066;52.106;5.534;2023-05-07T09:42:10;22.40;;;17.70;;
18296;SDS011;18066;52.106;5.534;2023-05-07T09:44:37;19.75;;;16.80;;
18296;SDS011;18066;52.106;5.534;2023-05-07T09:47:05;20.15;;;16.77;;
18296;SDS011;18066;52.106;5.534;2023-05-07T09:49:34;22.15;;;17.85;;
18296;SDS011;18066;52.106;5.534;2023-05-07T09:52:02;22.52;;;17.02;;
18296;SDS011;18066;52.106;5.534;2023-05-07T09:54:33;18.30;;;15.45;;
18296;SDS011;18066;52.106;5.534;2023-05-07T09:57:01;17.50;;;14.75;;
18296;SDS011;18066;52.106;5.534;2023-05-07T09:59:28;18.92;;;15.82;;
18296;SDS011;18066;52.106;5.534;2023-05-07T10:01:57;17.70;;;15.80;;
18296;SDS011;18066;52.106;5.534;2023-05-07T10:04:25;17.83;;;14.38;;
18296;SDS011;18066;52.106;5.534;2023-05-07T10:06:53;19.88;;;14.35;;
18296;SDS011;18066;52.106;5.534;2023-05-07T10:09:20;19.70;;;15.35;;
18296;SDS011;18066;52.106;5.534;2023-05-07T10:11:49;19.20;;;13.85;;
18296;SDS011;18066;52.106;5.534;2023-05-07T10:14:16;18.70;;;13.95;;
18296;SDS011;18066;52.106;5.534;2023-05-07T10:16:45;16.58;;;13.13;;
18296;SDS011;18066;52.106;5.534;2023-05-07T10:19:14;16.70;;;14.70;;
18296;SDS011;18066;52.106;5.534;2023-05-07T10:21:43;19.05;;;15.00;;
18296;SDS011;18066;52.106;5.534;2023-05-07T10:24:16;16.92;;;13.88;;
18296;SDS011;18066;52.106;5.534;2023-05-07T10:26:49;16.27;;;13.27;;
18296;SDS011;18066;52.106;5.534;2023-05-07T10:29:20;17.02;;;13.27;;
18296;SDS011;18066;52.106;5.534;2023-05-07T10:31:57;17.90;;;13.68;;
18296;SDS011;18066;52.106;5.534;2023-05-07T10:34:34;17.38;;;14.02;;
18296;SDS011;18066;52.106;5.534;2023-05-07T10:37:05;19.48;;;14.73;;
18296;SDS011;18066;52.106;5.534;2023-05-07T10:39:32;17.42;;;14.50;;
18296;SDS011;18066;52.106;5.534;2023-05-07T10:42:08;18.45;;;14.70;;
18296;SDS011;18066;52.106;5.534;2023-05-07T10:44:35;18.13;;;15.02;;
18296;SDS011;18066;52.106;5.534;2023-05-07T10:47:03;20.98;;;13.85;;
18296;SDS011;18066;52.106;5.534;2023-05-07T10:49:34;17.00;;;14.05;;
18296;SDS011;18066;52.106;5.534;2023-05-07T10:52:13;15.20;;;13.57;;
18296;SDS011;18066;52.106;5.534;2023-05-07T10:54:42;21.85;;;14.38;;
18296;SDS011;18066;52.106;5.534;2023-05-07T11:00:01;16.08;;;13.13;;
18296;SDS011;18066;52.106;5.534;2023-05-07T11:05:33;16.92;;;14.15;;
18296;SDS011;18066;52.106;5.534;2023-05-07T11:08:01;15.95;;;13.15;;
18296;SDS011;18066;52.106;5.534;2023-05-07T11:13:18;14.85;;;12.60;;
18296;SDS011;18066;52.106;5.534;2023-05-07T11:16:04;19.00;;;12.88;;
18296;SDS011;18066;52.106;5.534;2023-05-07T11:18:46;15.85;;;13.40;;
18296;SDS011;18066;52.106;5.534;2023-05-07T11:21:14;14.93;;;12.88;;
18296;SDS011;18066;52.106;5.534;2023-05-07T11:23:59;13.52;;;11.30;;
18296;SDS011;18066;52.106;5.534;2023-05-07T11:26:30;19.02;;;13.57;;
18296;SDS011;18066;52.106;5.534;2023-05-07T11:29:11;12.35;;;10.98;;
18296;SDS011;18066;52.106;5.534;2023-05-07T11:31:39;13.15;;;11.10;;
18296;SDS011;18066;52.106;5.534;2023-05-07T11:34:06;11.43;;;9.60;;
18296;SDS011;18066;52.106;5.534;2023-05-07T11:36:34;15.55;;;11.93;;
18296;SDS011;18066;52.106;5.534;2023-05-07T11:39:01;15.20;;;11.10;;
18296;SDS011;18066;52.106;5.534;2023-05-07T11:41:35;13.70;;;11.63;;
18296;SDS011;18066;52.106;5.534;2023-05-07T11:44:02;15.55;;;12.48;;
18296;SDS011;18066;52.106;5.534;2023-05-07T11:46:31;19.33;;;14.48;;
18296;SDS011;18066;52.106;5.534;2023-05-07T11:49:00;15.88;;;12.80;;
18296;SDS011;18066;52.106;5.534;2023-05-07T11:51:27;17.67;;;13.55;;
18296;SDS011;18066;52.106;5.534;2023-05-07T11:53:54;14.35;;;12.52;;
18296;SDS011;18066;52.106;5.534;2023-05-07T11:56:20;17.65;;;13.13;;
18296;SDS011;18066;52.106;5.534;2023-05-07T11:58:47;16.65;;;13.75;;
18296;SDS011;18066;52.106;5.534;2023-05-07T12:01:16;16.85;;;14.48;;
18296;SDS011;18066;52.106;5.534;2023-05-07T12:03:45;16.92;;;14.13;;
18296;SDS011;18066;52.106;5.534;2023-05-07T12:06:14;14.40;;;12.85;;
18296;SDS011;18066;52.106;5.534;2023-05-07T12:08:42;14.95;;;12.60;;
18296;SDS011;18066;52.106;5.534;2023-05-07T12:11:12;15.02;;;12.30;;
18296;SDS011;18066;52.106;5.534;2023-05-07T12:13:41;16.30;;;11.93;;
18296;SDS011;18066;52.106;5.534;2023-05-07T12:16:08;16.25;;;12.15;;
18296;SDS011;18066;52.106;5.534;2023-05-07T12:18:35;15.20;;;11.52;;
18296;SDS011;18066;52.106;5.534;2023-05-07T12:21:05;14.05;;;11.50;;
18296;SDS011;18066;52.106;5.534;2023-05-07T12:23:33;17.05;;;10.68;;
18296;SDS011;18066;52.106;5.534;2023-05-07T12:26:01;13.93;;;10.23;;
18296;SDS011;18066;52.106;5.534;2023-05-07T12:28:29;10.90;;;9.43;;
18296;SDS011;18066;52.106;5.534;2023-05-07T12:30:56;13.45;;;11.20;;
18296;SDS011;18066;52.106;5.534;2023-05-07T12:33:23;13.80;;;10.98;;
18296;SDS011;18066;52.106;5.534;2023-05-07T12:35:53;10.18;;;9.18;;
18296;SDS011;18066;52.106;5.534;2023-05-07T12:38:22;13.32;;;11.93;;
18296;SDS011;18066;52.106;5.534;2023-05-07T12:40:50;11.75;;;10.55;;
18296;SDS011;18066;52.106;5.534;2023-05-07T12:43:20;14.57;;;11.52;;
18296;SDS011;18066;52.106;5.534;2023-05-07T12:45:48;15.52;;;13.15;;
18296;SDS011;18066;52.106;5.534;2023-05-07T12:48:16;17.75;;;14.43;;
18296;SDS011;18066;52.106;5.534;2023-05-07T12:50:43;17.65;;;15.40;;
18296;SDS011;18066;52.106;5.534;2023-05-07T12:53:10;16.95;;;14.43;;
18296;SDS011;18066;52.106;5.534;2023-05-07T12:55:43;24.88;;;14.07;;
18296;SDS011;18066;52.106;5.534;2023-05-07T12:58:16;21.42;;;15.70;;
18296;SDS011;18066;52.106;5.534;2023-05-07T13:00:44;18.13;;;14.45;;
18296;SDS011;18066;52.106;5.534;2023-05-07T13:03:16;18.75;;;14.18;;
18296;SDS011;18066;52.106;5.534;2023-05-07T13:05:47;17.48;;;14.10;;
18296;SDS011;18066;52.106;5.534;2023-05-07T13:08:22;18.38;;;15.18;;
18296;SDS011;18066;52.106;5.534;2023-05-07T13:10:52;20.52;;;14.10;;
18296;SDS011;18066;52.106;5.534;2023-05-07T13:13:19;17.92;;;14.57;;
18296;SDS011;18066;52.106;5.534;2023-05-07T13:15:46;16.45;;;14.40;;
18296;SDS011;18066;52.106;5.534;2023-05-07T13:18:13;17.20;;;15.00;;
18296;SDS011;18066;52.106;5.534;2023-05-07T13:20:39;19.17;;;15.85;;
18296;SDS011;18066;52.106;5.534;2023-05-07T13:23:06;19.60;;;15.07;;
18296;SDS011;18066;52.106;5.534;2023-05-07T13:25:33;18.60;;;15.50;;
18296;SDS011;18066;52.106;5.534;2023-05-07T13:28:01;23.25;;;16.13;;
18296;SDS011;18066;52.106;5.534;2023-05-07T13:30:29;24.48;;;17.27;;
18296;SDS011;18066;52.106;5.534;2023-05-07T13:32:56;19.52;;;15.65;;
18296;SDS011;18066;52.106;5.534;2023-05-07T13:35:23;21.77;;;15.20;;
18296;SDS011;18066;52.106;5.534;2023-05-07T13:37:49;19.48;;;15.23;;
18296;SDS011;18066;52.106;5.534;2023-05-07T13:40:17;17.05;;;13.73;;
18296;SDS011;18066;52.106;5.534;2023-05-07T13:42:44;19.25;;;15.00;;
18296;SDS011;18066;52.106;5.534;2023-05-07T13:45:12;15.50;;;13.27;;
18296;SDS011;18066;52.106;5.534;2023-05-07T13:47:40;18.10;;;14.35;;
18296;SDS011;18066;52.106;5.534;2023-05-07T13:50:07;14.35;;;12.70;;
18296;SDS011;18066;52.106;5.534;2023-05-07T13:52:36;17.77;;;13.73;;
18296;SDS011;18066;52.106;5.534;2023-05-07T13:55:03;16.67;;;13.00;;
18296;SDS011;18066;52.106;5.534;2023-05-07T13:57:30;17.25;;;13.02;;
18296;SDS011;18066;52.106;5.534;2023-05-07T13:59:57;15.75;;;13.00;;
18296;SDS011;18066;52.106;5.534;2023-05-07T14:02:25;19.10;;;14.50;;
18296;SDS011;18066;52.106;5.534;2023-05-07T14:04:52;16.80;;;13.75;;
18296;SDS011;18066;52.106;5.534;2023-05-07T14:07:19;23.17;;;13.40;;
18296;SDS011;18066;52.106;5.534;2023-05-07T14:09:46;17.40;;;13.63;;
18296;SDS011;18066;52.106;5.534;2023-05-07T14:12:13;18.38;;;14.15;;
18296;SDS011;18066;52.106;5.534;2023-05-07T14:14:39;19.65;;;14.15;;
18296;SDS011;18066;52.106;5.534;2023-05-07T14:17:06;22.80;;;14.63;;
18296;SDS011;18066;52.106;5.534;2023-05-07T14:19:35;17.40;;;12.85;;
18296;SDS011;18066;52.106;5.534;2023-05-07T14:22:01;20.30;;;13.65;;
18296;SDS011;18066;52.106;5.534;2023-05-07T14:24:28;17.08;;;12.98;;
18296;SDS011;18066;52.106;5.534;2023-05-07T14:26:55;20.42;;;13.93;;
18296;SDS011;18066;52.106;5.534;2023-05-07T14:29:22;19.17;;;13.75;;
18296;SDS011;18066;52.106;5.534;2023-05-07T14:31:49;16.73;;;13.18;;
18296;SDS011;18066;52.106;5.534;2023-05-07T14:34:16;17.55;;;13.63;;
18296;SDS011;18066;52.106;5.534;2023-05-07T14:36:44;17.42;;;12.90;;
18296;SDS011;18066;52.106;5.534;2023-05-07T14:39:10;19.48;;;13.68;;
18296;SDS011;18066;52.106;5.534;2023-05-07T14:41:37;20.42;;;12.55;;